createdAt,value
2023-03-18T00:00:36.167Z,56.96
2023-03-18T00:03:03.905Z,56.86
2023-03-18T00:05:32.464Z,56.96
2023-03-18T00:08:00.209Z,57.45
2023-03-18T00:10:29.833Z,57.87
2023-03-18T00:12:58.817Z,57.62
2023-03-18T00:15:26.564Z,57.88
2023-03-18T00:17:54.539Z,57.98
2023-03-18T00:20:29.791Z,58.39
2023-03-18T00:22:58.235Z,58.51
2023-03-18T00:25:25.915Z,58.20
2023-03-18T00:27:55.528Z,58.58
2023-03-18T00:30:23.882Z,57.43
2023-03-18T00:32:51.619Z,58.16
2023-03-18T00:35:19.913Z,57.98
2023-03-18T00:37:48.626Z,58.33
2023-03-18T00:40:20.872Z,58.93
2023-03-18T00:42:50.606Z,58.66
2023-03-18T00:45:19.772Z,59.24
2023-03-18T00:47:48.961Z,59.42
2023-03-18T00:50:17.164Z,59.43
2023-03-18T00:52:45.139Z,59.32
2023-03-18T00:55:13.396Z,59.37
2023-03-18T00:57:41.199Z,59.09
2023-03-18T01:00:11.459Z,59.33
2023-03-18T01:02:41.739Z,59.66
2023-03-18T01:05:12.218Z,59.52
2023-03-18T01:07:39.894Z,59.95
2023-03-18T01:12:57.951Z,60.00
2023-03-18T01:18:16.540Z,60.13
2023-03-18T01:20:45.123Z,59.57
2023-03-18T01:23:13.327Z,60.57
2023-03-18T01:25:41.120Z,60.26
2023-03-18T01:28:09.478Z,60.51
2023-03-18T01:30:38.228Z,60.51
2023-03-18T01:33:07.157Z,60.45
2023-03-18T01:35:37.941Z,60.67
2023-03-18T01:38:06.743Z,60.94
2023-03-18T01:40:37.008Z,60.76
2023-03-18T01:43:15.268Z,60.67
2023-03-18T01:45:46.020Z,61.51
2023-03-18T01:48:16.338Z,60.89
2023-03-18T01:50:48.737Z,61.46
2023-03-18T01:53:19.268Z,61.36
2023-03-18T01:55:49.463Z,60.93
2023-03-18T01:58:22.121Z,60.89
2023-03-18T02:00:55.559Z,61.47
2023-03-18T02:03:23.728Z,60.94
2023-03-18T02:05:53.357Z,61.45
2023-03-18T02:08:21.565Z,61.29
2023-03-18T02:10:51.085Z,60.96
2023-03-18T02:13:19.611Z,61.16
2023-03-18T02:15:52.592Z,60.75
2023-03-18T02:18:24.619Z,61.04
2023-03-18T02:21:08.828Z,60.70
2023-03-18T02:23:46.387Z,61.08
2023-03-18T02:26:22.369Z,60.91
2023-03-18T02:28:53.147Z,60.88
2023-03-18T02:31:22.532Z,60.80
2023-03-18T02:33:50.941Z,60.80
2023-03-18T02:36:20.610Z,60.75
2023-03-18T02:38:48.771Z,60.56
2023-03-18T02:41:18.841Z,60.35
2023-03-18T02:43:47.361Z,60.85
2023-03-18T02:46:43.322Z,60.36
2023-03-18T02:49:11.969Z,60.86
2023-03-18T02:51:40.317Z,60.54
2023-03-18T02:54:11.738Z,60.28
2023-03-18T02:56:41.212Z,61.08
2023-03-18T02:59:09.604Z,60.59
2023-03-18T03:01:40.198Z,60.88
2023-03-18T03:04:08.471Z,60.94
2023-03-18T03:06:37.148Z,60.64
2023-03-18T03:09:07.045Z,60.75
2023-03-18T03:11:34.721Z,60.35
2023-03-18T03:14:02.377Z,60.53
2023-03-18T03:16:31.063Z,59.93
2023-03-18T03:19:00.274Z,60.28
2023-03-18T03:21:29.227Z,59.67
2023-03-18T03:23:57.471Z,60.31
2023-03-18T03:26:25.118Z,59.93
2023-03-18T03:28:52.927Z,59.57
2023-03-18T03:31:21.244Z,59.75
2023-03-18T03:33:48.934Z,59.73
2023-03-18T03:36:18.571Z,59.67
2023-03-18T03:38:47.029Z,59.80
2023-03-18T03:41:15.820Z,59.81
2023-03-18T03:43:44.687Z,59.59
2023-03-18T03:46:13.267Z,59.73
2023-03-18T03:48:41.193Z,59.81
2023-03-18T03:51:08.885Z,59.46
2023-03-18T03:53:38.755Z,59.33
2023-03-18T03:56:09.129Z,60.20
2023-03-18T03:58:37.278Z,59.61
2023-03-18T04:01:06.947Z,59.89
2023-03-18T04:03:34.756Z,59.52
2023-03-18T04:06:02.429Z,59.62
2023-03-18T04:08:30.628Z,59.92
2023-03-18T04:10:59.670Z,59.57
2023-03-18T04:13:27.416Z,59.75
2023-03-18T04:15:55.654Z,59.99
2023-03-18T04:18:23.403Z,59.43
2023-03-18T04:20:51.056Z,59.84
2023-03-18T04:23:19.884Z,59.44
2023-03-18T04:25:47.736Z,59.89
2023-03-18T04:28:16.775Z,60.10
2023-03-18T04:30:44.907Z,59.48
2023-03-18T04:33:12.894Z,60.09
2023-03-18T04:35:42.727Z,60.09
2023-03-18T04:38:10.934Z,59.75
2023-03-18T04:40:38.616Z,59.61
2023-03-18T04:43:06.335Z,60.46
2023-03-18T04:45:35.882Z,59.94
2023-03-18T04:48:04.153Z,60.11
2023-03-18T04:50:32.018Z,60.59
2023-03-18T04:53:00.755Z,60.25
2023-03-18T04:55:28.424Z,60.75
2023-03-18T04:57:56.057Z,60.68
2023-03-18T05:00:24.601Z,60.17
2023-03-18T05:02:53.636Z,60.52
2023-03-18T05:05:21.353Z,60.49
2023-03-18T05:07:49.498Z,60.82
2023-03-18T05:10:18.844Z,60.97
2023-03-18T05:12:46.515Z,61.48
2023-03-18T05:15:15.115Z,61.20
2023-03-18T05:17:42.890Z,61.73
2023-03-18T05:20:13.445Z,61.93
2023-03-18T05:22:41.895Z,61.87
2023-03-18T05:25:11.472Z,61.30
2023-03-18T05:27:39.238Z,60.55
2023-03-18T05:30:08.567Z,61.44
2023-03-18T05:32:36.668Z,61.57
2023-03-18T05:35:05.519Z,61.41
2023-03-18T05:37:35.131Z,61.80
2023-03-18T05:40:04.223Z,61.39
2023-03-18T05:42:31.956Z,61.16
2023-03-18T05:45:00.021Z,61.66
2023-03-18T05:47:27.788Z,61.05
2023-03-18T05:49:55.524Z,61.89
2023-03-18T05:52:23.857Z,61.62
2023-03-18T05:54:54.280Z,61.54
2023-03-18T05:57:22.301Z,61.17
2023-03-18T05:59:50.462Z,61.66
2023-03-18T06:02:18.410Z,61.67
2023-03-18T06:04:46.148Z,61.09
2023-03-18T06:07:14.292Z,61.13
2023-03-18T06:09:41.969Z,61.62
2023-03-18T06:12:11.435Z,61.80
2023-03-18T06:14:40.109Z,61.25
2023-03-18T06:17:07.883Z,60.86
2023-03-18T06:19:35.544Z,61.28
2023-03-18T06:22:03.727Z,61.26
2023-03-18T06:24:31.536Z,61.71
2023-03-18T06:26:59.272Z,61.42
2023-03-18T06:29:29.737Z,61.37
2023-03-18T06:31:57.395Z,61.83
2023-03-18T06:34:25.298Z,61.41
2023-03-18T06:36:53.805Z,61.39
2023-03-18T06:39:21.482Z,61.97
2023-03-18T06:41:49.461Z,61.52
2023-03-18T06:44:17.656Z,61.96
2023-03-18T06:46:47.037Z,62.18
2023-03-18T06:49:14.934Z,61.50
2023-03-18T06:51:44.114Z,61.54
2023-03-18T06:54:11.786Z,62.11
2023-03-18T06:56:41.675Z,61.57
2023-03-18T06:59:10.852Z,62.26
2023-03-18T07:01:38.713Z,61.58
2023-03-18T07:04:08.235Z,61.99
2023-03-18T07:06:36.329Z,61.49
2023-03-18T07:09:04.162Z,61.81
2023-03-18T07:11:31.821Z,62.16
2023-03-18T07:13:59.512Z,62.26
2023-03-18T07:16:27.488Z,62.47
2023-03-18T07:18:55.217Z,62.21
2023-03-18T07:21:25.182Z,61.56
2023-03-18T07:23:55.146Z,61.63
2023-03-18T07:26:24.045Z,60.95
2023-03-18T07:28:51.894Z,60.61
2023-03-18T07:31:19.899Z,60.69
2023-03-18T07:33:47.556Z,60.57
2023-03-18T07:36:16.102Z,60.57
2023-03-18T07:38:45.167Z,60.35
2023-03-18T07:41:13.302Z,60.04
2023-03-18T07:43:41.729Z,59.93
2023-03-18T07:46:09.432Z,60.39
2023-03-18T07:48:37.173Z,60.31
2023-03-18T07:51:05.769Z,60.07
2023-03-18T07:53:33.751Z,60.16
2023-03-18T07:56:03.327Z,60.09
2023-03-18T07:58:31.051Z,60.28
2023-03-18T08:00:59.831Z,60.57
2023-03-18T08:03:27.959Z,60.45
2023-03-18T08:05:56.592Z,60.46
2023-03-18T08:08:24.791Z,60.73
2023-03-18T08:10:52.546Z,60.79
2023-03-18T08:13:21.632Z,60.06
2023-03-18T08:15:49.325Z,60.50
2023-03-18T08:18:16.973Z,59.86
2023-03-18T08:20:45.191Z,59.53
2023-03-18T08:23:12.907Z,59.71
2023-03-18T08:25:40.700Z,59.63
2023-03-18T08:28:08.674Z,59.77
2023-03-18T08:30:40.119Z,59.68
2023-03-18T08:33:07.935Z,59.57
2023-03-18T08:35:35.996Z,59.29
2023-03-18T08:38:04.141Z,59.73
2023-03-18T08:40:32.523Z,59.38
2023-03-18T08:43:00.716Z,59.11
2023-03-18T08:45:28.680Z,59.48
2023-03-18T08:47:57.726Z,59.26
2023-03-18T08:50:29.049Z,59.48
2023-03-18T08:52:58.495Z,59.57
2023-03-18T08:55:30.288Z,59.67
2023-03-18T08:57:58.655Z,59.41
2023-03-18T09:00:27.391Z,58.85
2023-03-18T09:02:56.043Z,59.27
2023-03-18T09:05:25.085Z,59.47
2023-03-18T09:07:53.176Z,59.75
2023-03-18T09:10:21.444Z,59.52
2023-03-18T09:12:49.850Z,58.98
2023-03-18T09:15:20.269Z,58.99
2023-03-18T09:18:03.845Z,58.85
2023-03-18T09:20:38.892Z,59.04
2023-03-18T09:23:07.340Z,58.71
2023-03-18T09:25:35.312Z,58.24
2023-03-18T09:28:03.373Z,58.37
2023-03-18T09:30:31.913Z,58.51
2023-03-18T09:32:59.949Z,58.07
2023-03-18T09:35:29.068Z,58.10
2023-03-18T09:37:59.009Z,57.87
2023-03-18T09:40:30.589Z,57.64
2023-03-18T09:43:16.394Z,57.98
2023-03-18T09:45:57.008Z,57.68
2023-03-18T09:49:00.048Z,57.56
2023-03-18T09:51:41.874Z,57.54
2023-03-18T09:54:17.733Z,57.31
2023-03-18T09:56:46.688Z,56.79
2023-03-18T09:59:19.513Z,57.04
2023-03-18T10:01:50.593Z,57.02
2023-03-18T10:04:23.870Z,57.33
2023-03-18T10:06:58.021Z,57.23
2023-03-18T10:09:31.619Z,57.29
2023-03-18T10:12:07.312Z,56.98
2023-03-18T10:14:41.818Z,57.05
2023-03-18T10:17:19.329Z,56.98
2023-03-18T10:19:52.358Z,56.68
2023-03-18T10:22:45.220Z,57.22
2023-03-18T10:25:21.390Z,57.45
2023-03-18T10:28:00.136Z,57.37
2023-03-18T10:30:50.936Z,57.51
2023-03-18T10:33:27.572Z,57.72
2023-03-18T10:36:04.949Z,58.01
2023-03-18T10:38:37.696Z,57.63
2023-03-18T10:41:17.650Z,57.48
2023-03-18T10:43:48.583Z,57.58
2023-03-18T10:46:19.972Z,57.68
2023-03-18T10:48:51.387Z,57.60
2023-03-18T10:51:25.020Z,57.61
2023-03-18T10:54:00.410Z,57.72
2023-03-18T10:56:30.175Z,57.52
2023-03-18T10:58:58.237Z,58.00
2023-03-18T11:01:30.390Z,57.62
2023-03-18T11:04:02.160Z,57.98
2023-03-18T11:06:41.936Z,57.98
2023-03-18T11:09:12.268Z,57.66
2023-03-18T11:11:45.212Z,57.76
2023-03-18T11:14:17.109Z,57.82
2023-03-18T11:16:51.403Z,57.51
2023-03-18T11:19:32.165Z,57.73
2023-03-18T11:22:11.747Z,57.82
2023-03-18T11:24:42.581Z,58.64
2023-03-18T11:34:22.021Z,57.41
2023-03-18T11:37:36.958Z,56.65
2023-03-18T11:44:07.741Z,56.31
2023-03-18T11:47:07.182Z,55.88
2023-03-18T11:49:51.613Z,56.65
2023-03-18T11:52:33.536Z,55.81
2023-03-18T11:55:27.573Z,55.57
2023-03-18T11:58:31.344Z,55.47
2023-03-18T12:01:08.742Z,54.59
2023-03-18T12:04:00.632Z,54.16
2023-03-18T12:06:31.580Z,53.73
2023-03-18T12:09:05.246Z,53.77
2023-03-18T12:11:57.312Z,53.74
2023-03-18T12:14:32.882Z,52.85
2023-03-18T12:17:14.166Z,53.79
2023-03-18T12:20:05.790Z,54.11
2023-03-18T12:22:50.303Z,53.86
2023-03-18T12:25:52.242Z,53.74
2023-03-18T12:28:33.061Z,53.95
2023-03-18T12:31:20.214Z,53.55
2023-03-18T12:33:56.354Z,54.10
2023-03-18T12:36:37.524Z,53.49
2023-03-18T12:39:49.060Z,52.65
2023-03-18T12:42:20.039Z,53.14
2023-03-18T12:44:58.838Z,52.02
2023-03-18T12:47:35.902Z,51.05
2023-03-18T12:50:08.863Z,50.63
2023-03-18T12:52:43.894Z,50.41
2023-03-18T12:55:17.178Z,50.87
2023-03-18T12:57:49.448Z,50.66
2023-03-18T13:00:25.804Z,49.90
2023-03-18T13:02:59.704Z,49.34
2023-03-18T13:05:36.750Z,49.55
2023-03-18T13:08:28.542Z,49.37
2023-03-18T13:11:05.844Z,49.48
2023-03-18T13:13:38.494Z,49.23
2023-03-18T13:16:08.428Z,49.21
2023-03-18T13:18:41.080Z,48.63
2023-03-18T13:21:09.556Z,48.91
2023-03-18T13:24:07.036Z,48.90
2023-03-18T13:26:52.539Z,48.50
2023-03-18T13:29:32.681Z,49.32
2023-03-18T13:32:09.434Z,48.90
2023-03-18T13:34:56.701Z,48.06
2023-03-18T13:37:35.888Z,48.11
2023-03-18T13:40:22.758Z,48.26
2023-03-18T13:42:52.554Z,48.19
2023-03-18T13:45:28.847Z,48.03
2023-03-18T13:47:59.367Z,47.98
2023-03-18T13:50:33.245Z,48.94
2023-03-18T13:53:02.580Z,47.89
2023-03-18T13:55:35.493Z,47.48
2023-03-18T13:58:20.113Z,47.83
2023-03-18T14:01:17.275Z,47.71
2023-03-18T14:03:57.135Z,47.40
2023-03-18T14:06:26.973Z,46.60
2023-03-18T14:08:54.797Z,46.69
2023-03-18T14:11:47.143Z,47.56
2023-03-18T14:14:54.789Z,47.30
2023-03-18T14:17:28.341Z,46.88
2023-03-18T14:19:56.905Z,46.40
2023-03-18T14:22:30.878Z,46.56
2023-03-18T14:25:41.489Z,46.76
2023-03-18T14:28:27.908Z,45.83
2023-03-18T14:31:00.372Z,46.48
2023-03-18T14:33:34.478Z,45.68
2023-03-18T14:36:06.844Z,46.26
2023-03-18T14:38:42.637Z,45.53
2023-03-18T14:41:22.629Z,46.11
2023-03-18T14:44:09.719Z,46.50
2023-03-18T14:46:43.073Z,46.48
2023-03-18T14:49:35.855Z,46.40
2023-03-18T14:52:14.465Z,46.26
2023-03-18T14:54:46.420Z,46.13
2023-03-18T14:57:14.175Z,45.96
2023-03-18T14:59:43.266Z,46.07
2023-03-18T15:02:24.028Z,46.58
2023-03-18T15:04:54.401Z,46.36
2023-03-18T15:07:34.616Z,46.41
2023-03-18T15:10:05.648Z,45.75
2023-03-18T15:12:33.374Z,46.06
2023-03-18T15:15:03.147Z,46.37
2023-03-18T15:17:31.436Z,46.07
2023-03-18T15:20:00.426Z,45.98
2023-03-18T15:22:31.164Z,45.94
2023-03-18T15:25:02.259Z,45.96
2023-03-18T15:27:32.225Z,45.94
2023-03-18T15:30:04.738Z,46.24
2023-03-18T15:32:34.436Z,45.99
2023-03-18T15:35:16.595Z,46.45
2023-03-18T15:37:46.597Z,45.93
2023-03-18T15:40:32.911Z,46.11
2023-03-18T15:43:06.475Z,45.85
2023-03-18T15:45:36.076Z,45.71
2023-03-18T15:48:09.264Z,45.60
2023-03-18T15:50:37.682Z,45.82
2023-03-18T15:53:18.879Z,45.68
2023-03-18T15:55:52.731Z,46.07
2023-03-18T15:58:23.880Z,46.06
2023-03-18T16:00:54.853Z,45.96
2023-03-18T16:03:27.695Z,45.54
2023-03-18T16:05:56.517Z,46.09
2023-03-18T16:08:24.889Z,45.77
2023-03-18T16:10:55.928Z,45.94
2023-03-18T16:13:25.659Z,45.88
2023-03-18T16:15:54.809Z,45.45
2023-03-18T16:18:23.604Z,46.04
2023-03-18T16:20:52.863Z,45.83
2023-03-18T16:23:21.435Z,45.99
2023-03-18T16:25:51.084Z,46.07
2023-03-18T16:28:22.079Z,45.93
2023-03-18T16:30:52.745Z,46.04
2023-03-18T16:33:21.948Z,45.74
2023-03-18T16:35:55.619Z,45.90
2023-03-18T16:38:23.704Z,45.90
2023-03-18T16:40:54.308Z,45.76
2023-03-18T16:43:24.101Z,45.66
2023-03-18T16:45:52.371Z,46.09
2023-03-18T16:48:22.884Z,46.04
2023-03-18T16:50:52.521Z,46.24
2023-03-18T16:53:23.324Z,46.45
2023-03-18T16:55:54.484Z,46.62
2023-03-18T16:58:26.567Z,47.16
2023-03-18T17:00:54.675Z,47.19
2023-03-18T17:03:23.841Z,46.84
2023-03-18T17:05:52.142Z,45.92
2023-03-18T17:08:22.104Z,45.89
2023-03-18T17:10:52.646Z,45.30
2023-03-18T17:13:23.864Z,45.40
2023-03-18T17:15:52.371Z,45.45
2023-03-18T17:18:22.335Z,45.29
2023-03-18T17:20:52.782Z,45.06
2023-03-18T17:23:22.238Z,43.94
2023-03-18T17:25:53.571Z,44.10
2023-03-18T17:28:28.044Z,45.50
2023-03-18T17:30:56.827Z,47.04
2023-03-18T17:33:27.162Z,48.54
2023-03-18T17:35:56.474Z,49.04
2023-03-18T17:38:24.667Z,50.40
2023-03-18T17:40:52.856Z,51.50
2023-03-18T17:43:27.486Z,51.87
2023-03-18T17:45:56.561Z,52.65
2023-03-18T17:48:25.686Z,52.65
2023-03-18T17:50:57.290Z,52.77
2023-03-18T17:53:32.963Z,53.92
2023-03-18T17:56:02.401Z,53.87
2023-03-18T17:58:31.788Z,54.36
2023-03-18T18:01:05.980Z,54.38
2023-03-18T18:03:35.850Z,54.64
2023-03-18T18:06:06.809Z,54.21
2023-03-18T18:08:36.064Z,54.71
2023-03-18T18:11:15.968Z,54.80
2023-03-18T18:13:43.664Z,55.29
2023-03-18T18:16:11.407Z,55.47
2023-03-18T18:18:40.022Z,55.76
2023-03-18T18:21:15.500Z,55.57
2023-03-18T18:23:46.322Z,55.95
2023-03-18T18:26:15.844Z,55.94
2023-03-18T18:28:48.233Z,55.82
2023-03-18T18:31:19.205Z,55.86
2023-03-18T18:36:40.145Z,55.84
2023-03-18T18:39:09.798Z,56.09
2023-03-18T18:41:37.314Z,54.64
2023-03-18T18:44:05.073Z,55.73
2023-03-18T18:46:34.710Z,55.80
2023-03-18T18:49:02.220Z,54.72
2023-03-18T18:51:30.174Z,55.87
2023-03-18T18:54:00.364Z,56.26
2023-03-18T18:56:34.046Z,56.14
2023-03-18T18:59:05.634Z,55.88
2023-03-18T19:01:33.380Z,55.79
2023-03-18T19:04:02.613Z,56.58
2023-03-18T19:06:32.633Z,56.31
2023-03-18T19:09:03.891Z,56.27
2023-03-18T19:11:31.576Z,56.21
2023-03-18T19:14:18.785Z,56.18
2023-03-18T19:16:48.099Z,56.03
2023-03-18T19:19:16.598Z,55.97
2023-03-18T19:21:45.243Z,56.19
2023-03-18T19:24:33.018Z,56.10
2023-03-18T19:27:03.672Z,56.59
2023-03-18T19:29:32.522Z,56.46
2023-03-18T19:32:01.261Z,56.35
2023-03-18T19:34:30.307Z,56.65
2023-03-18T19:36:57.972Z,56.83
2023-03-18T19:39:27.679Z,56.66
2023-03-18T19:41:57.256Z,56.50
2023-03-18T19:44:25.554Z,55.98
2023-03-18T19:46:56.225Z,56.31
2023-03-18T19:49:26.820Z,56.69
2023-03-18T19:51:55.426Z,56.53
2023-03-18T19:54:30.347Z,57.04
2023-03-18T19:57:01.184Z,56.98
2023-03-18T19:59:37.316Z,56.99
2023-03-18T20:02:19.182Z,57.03
2023-03-18T20:04:48.095Z,57.21
2023-03-18T20:07:16.106Z,56.80
2023-03-18T20:09:44.347Z,57.25
2023-03-18T20:12:22.764Z,57.46
2023-03-18T20:14:51.144Z,57.18
2023-03-18T20:17:37.524Z,56.93
2023-03-18T20:20:06.716Z,57.40
2023-03-18T20:22:37.262Z,57.68
2023-03-18T20:25:08.670Z,57.40
2023-03-18T20:27:37.713Z,57.75
2023-03-18T20:30:17.873Z,57.68
2023-03-18T20:32:45.541Z,57.61
2023-03-18T20:35:13.405Z,58.02
2023-03-18T20:37:41.978Z,58.10
2023-03-18T20:40:19.004Z,58.05
2023-03-18T20:42:48.383Z,57.82
2023-03-18T20:45:16.863Z,58.23
2023-03-18T20:47:44.892Z,58.53
2023-03-18T20:50:16.041Z,58.45
2023-03-18T20:52:44.969Z,58.87
2023-03-18T20:55:25.751Z,58.75
2023-03-18T20:57:55.387Z,59.04
2023-03-18T21:00:24.149Z,58.90
2023-03-18T21:02:54.228Z,59.06
2023-03-18T21:05:22.667Z,59.34
2023-03-18T21:07:50.486Z,59.16
2023-03-18T21:10:20.317Z,59.66
2023-03-18T21:12:48.585Z,59.29
2023-03-18T21:15:21.702Z,59.63
2023-03-18T21:17:50.046Z,59.70
2023-03-18T21:20:22.376Z,59.69
2023-03-18T21:22:51.993Z,59.56
2023-03-18T21:25:21.825Z,59.51
2023-03-18T21:27:50.105Z,59.38
2023-03-18T21:31:09.790Z,59.69
2023-03-18T21:33:39.285Z,59.79
2023-03-18T21:36:07.794Z,59.58
2023-03-18T21:38:36.221Z,59.86
2023-03-18T21:41:04.283Z,59.50
2023-03-18T21:43:34.692Z,59.50
2023-03-18T21:46:02.903Z,59.75
2023-03-18T21:48:31.541Z,59.81
2023-03-18T21:51:00.682Z,59.95
2023-03-18T21:53:29.796Z,59.85
2023-03-18T21:55:57.559Z,60.33
2023-03-18T21:58:27.101Z,60.01
2023-03-18T22:00:56.762Z,59.80
2023-03-18T22:03:25.159Z,59.13
2023-03-18T22:05:54.426Z,59.99
2023-03-18T22:08:24.380Z,60.06
2023-03-18T22:10:53.033Z,59.97
2023-03-18T22:13:22.804Z,60.04
2023-03-18T22:15:51.769Z,60.23
2023-03-18T22:18:20.016Z,60.24
2023-03-18T22:20:50.359Z,60.12
2023-03-18T22:23:20.948Z,59.58
2023-03-18T22:25:51.740Z,59.94
2023-03-18T22:28:19.684Z,59.88
2023-03-18T22:30:52.131Z,59.88
2023-03-18T22:33:24.951Z,60.16
2023-03-18T22:35:53.467Z,59.97
2023-03-18T22:38:23.779Z,59.59
2023-03-18T22:40:54.991Z,59.68
2023-03-18T22:43:31.694Z,59.82
2023-03-18T22:46:01.186Z,59.77
2023-03-18T22:48:29.132Z,60.45
2023-03-18T22:50:59.965Z,60.02
2023-03-18T22:53:30.557Z,59.79
2023-03-18T22:56:05.484Z,60.39
2023-03-18T22:58:33.232Z,59.71
2023-03-18T23:01:00.908Z,59.72
2023-03-18T23:03:31.067Z,60.42
2023-03-18T23:06:00.099Z,60.14
2023-03-18T23:08:28.269Z,59.85
2023-03-18T23:11:00.301Z,60.25
2023-03-18T23:13:31.195Z,60.14
2023-03-18T23:15:59.147Z,60.34
2023-03-18T23:18:27.521Z,60.25
2023-03-18T23:20:55.437Z,60.11
2023-03-18T23:23:23.428Z,60.61
2023-03-18T23:25:52.750Z,60.12
2023-03-18T23:28:20.704Z,60.36
2023-03-18T23:30:52.478Z,60.26
2023-03-18T23:33:21.183Z,59.95
2023-03-18T23:35:49.286Z,60.44
2023-03-18T23:38:17.154Z,60.72
2023-03-18T23:40:44.979Z,60.53
2023-03-18T23:43:12.661Z,60.67
2023-03-18T23:45:40.558Z,60.41
2023-03-18T23:48:10.219Z,60.95
2023-03-18T23:50:37.690Z,60.18
2023-03-18T23:53:05.663Z,60.67
2023-03-18T23:55:35.185Z,60.63
2023-03-18T23:58:13.401Z,60.64
